sensor_id;sensor_type;location;lat;lon;timestamp;P1;durP1;ratioP1;P2;durP2;ratioP2
41099;SDS011;26844;53.686;-6.346;2024-01-15T00:02:16;5.72;;;5.53;;
41099;SDS011;26844;53.686;-6.346;2024-01-15T00:04:41;6.43;;;6.22;;
41099;SDS011;26844;53.686;-6.346;2024-01-15T00:07:07;6.47;;;6.28;;
41099;SDS011;26844;53.686;-6.346;2024-01-15T00:09:32;6.47;;;6.28;;
41099;SDS011;26844;53.686;-6.346;2024-01-15T00:11:58;6.70;;;6.50;;
41099;SDS011;26844;53.686;-6.346;2024-01-15T00:14:24;6.95;;;6.75;;
41099;SDS011;26844;53.686;-6.346;2024-01-15T00:16:52;7.18;;;6.97;;
41099;SDS011;26844;53.686;-6.346;2024-01-15T00:19:20;6.95;;;6.75;;
41099;SDS011;26844;53.686;-6.346;2024-01-15T00:21:45;6.85;;;6.65;;
41099;SDS011;26844;53.686;-6.346;2024-01-15T00:24:10;6.60;;;6.40;;
41099;SDS011;26844;53.686;-6.346;2024-01-15T00:26:36;6.78;;;6.57;;
41099;SDS011;26844;53.686;-6.346;2024-01-15T00:29:01;6.78;;;6.57;;
41099;SDS011;26844;53.686;-6.346;2024-01-15T00:31:27;6.80;;;6.60;;
41099;SDS011;26844;53.686;-6.346;2024-01-15T00:33:54;5.80;;;5.60;;
41099;SDS011;26844;53.686;-6.346;2024-01-15T00:36:20;6.20;;;6.00;;
41099;SDS011;26844;53.686;-6.346;2024-01-15T00:38:45;6.85;;;6.65;;
41099;SDS011;26844;53.686;-6.346;2024-01-15T00:41:12;7.55;;;7.25;;
41099;SDS011;26844;53.686;-6.346;2024-01-15T00:43:38;7.32;;;7.03;;
41099;SDS011;26844;53.686;-6.346;2024-01-15T00:46:03;6.88;;;6.68;;
41099;SDS011;26844;53.686;-6.346;2024-01-15T00:48:28;6.70;;;6.50;;
41099;SDS011;26844;53.686;-6.346;2024-01-15T00:50:54;6.50;;;6.30;;
41099;SDS011;26844;53.686;-6.346;2024-01-15T00:53:19;6.80;;;6.60;;
41099;SDS011;26844;53.686;-6.346;2024-01-15T00:55:47;7.07;;;6.88;;
41099;SDS011;26844;53.686;-6.346;2024-01-15T00:58:12;7.38;;;7.07;;
41099;SDS011;26844;53.686;-6.346;2024-01-15T01:00:37;6.40;;;6.20;;
41099;SDS011;26844;53.686;-6.346;2024-01-15T01:03:02;6.75;;;6.55;;
41099;SDS011;26844;53.686;-6.346;2024-01-15T01:05:28;7.13;;;6.90;;
41099;SDS011;26844;53.686;-6.346;2024-01-15T01:07:54;6.88;;;6.68;;
41099;SDS011;26844;53.686;-6.346;2024-01-15T01:10:19;6.85;;;6.65;;
41099;SDS011;26844;53.686;-6.346;2024-01-15T01:12:44;6.90;;;6.70;;
41099;SDS011;26844;53.686;-6.346;2024-01-15T01:15:09;7.38;;;7.07;;
41099;SDS011;26844;53.686;-6.346;2024-01-15T01:17:35;7.18;;;6.95;;
41099;SDS011;26844;53.686;-6.346;2024-01-15T01:20:00;7.50;;;7.20;;
41099;SDS011;26844;53.686;-6.346;2024-01-15T01:22:26;7.10;;;6.88;;
41099;SDS011;26844;53.686;-6.346;2024-01-15T01:24:51;7.60;;;7.30;;
41099;SDS011;26844;53.686;-6.346;2024-01-15T01:27:17;7.45;;;7.15;;
41099;SDS011;26844;53.686;-6.346;2024-01-15T01:29:42;7.50;;;7.20;;
41099;SDS011;26844;53.686;-6.346;2024-01-15T01:32:07;7.68;;;7.38;;
41099;SDS011;26844;53.686;-6.346;2024-01-15T01:34:32;6.45;;;6.25;;
41099;SDS011;26844;53.686;-6.346;2024-01-15T01:36:58;7.50;;;7.20;;
41099;SDS011;26844;53.686;-6.346;2024-01-15T01:39:23;7.47;;;7.18;;
41099;SDS011;26844;53.686;-6.346;2024-01-15T01:41:48;7.13;;;6.88;;
41099;SDS011;26844;53.686;-6.346;2024-01-15T01:44:14;7.95;;;7.65;;
41099;SDS011;26844;53.686;-6.346;2024-01-15T01:46:39;6.95;;;6.75;;
41099;SDS011;26844;53.686;-6.346;2024-01-15T01:49:05;7.10;;;6.90;;
41099;SDS011;26844;53.686;-6.346;2024-01-15T01:51:31;6.75;;;6.55;;
41099;SDS011;26844;53.686;-6.346;2024-01-15T01:53:58;6.47;;;6.27;;
41099;SDS011;26844;53.686;-6.346;2024-01-15T01:56:23;6.95;;;6.75;;
41099;SDS011;26844;53.686;-6.346;2024-01-15T01:58:49;6.05;;;5.85;;
41099;SDS011;26844;53.686;-6.346;2024-01-15T02:01:14;6.03;;;5.82;;
41099;SDS011;26844;53.686;-6.346;2024-01-15T02:03:40;5.75;;;5.55;;
41099;SDS011;26844;53.686;-6.346;2024-01-15T02:06:06;5.97;;;5.78;;
41099;SDS011;26844;53.686;-6.346;2024-01-15T02:08:31;5.65;;;5.45;;
41099;SDS011;26844;53.686;-6.346;2024-01-15T02:10:56;5.85;;;5.65;;
41099;SDS011;26844;53.686;-6.346;2024-01-15T02:13:21;6.35;;;6.15;;
41099;SDS011;26844;53.686;-6.346;2024-01-15T02:15:47;5.95;;;5.75;;
41099;SDS011;26844;53.686;-6.346;2024-01-15T02:18:12;6.00;;;5.80;;
41099;SDS011;26844;53.686;-6.346;2024-01-15T02:20:37;5.97;;;5.78;;
41099;SDS011;26844;53.686;-6.346;2024-01-15T02:25:36;6.15;;;5.95;;
41099;SDS011;26844;53.686;-6.346;2024-01-15T02:28:01;6.32;;;6.13;;
41099;SDS011;26844;53.686;-6.346;2024-01-15T02:30:27;6.18;;;5.97;;
41099;SDS011;26844;53.686;-6.346;2024-01-15T02:32:53;6.72;;;6.53;;
41099;SDS011;26844;53.686;-6.346;2024-01-15T02:35:18;6.43;;;6.22;;
41099;SDS011;26844;53.686;-6.346;2024-01-15T02:37:44;7.00;;;6.80;;
41099;SDS011;26844;53.686;-6.346;2024-01-15T02:40:09;6.57;;;6.38;;
41099;SDS011;26844;53.686;-6.346;2024-01-15T02:42:34;6.82;;;6.63;;
41099;SDS011;26844;53.686;-6.346;2024-01-15T02:44:59;6.90;;;6.70;;
41099;SDS011;26844;53.686;-6.346;2024-01-15T02:47:25;6.55;;;6.35;;
41099;SDS011;26844;53.686;-6.346;2024-01-15T02:49:50;6.72;;;6.53;;
41099;SDS011;26844;53.686;-6.346;2024-01-15T02:52:15;6.70;;;6.50;;
41099;SDS011;26844;53.686;-6.346;2024-01-15T02:54:41;6.88;;;6.68;;
41099;SDS011;26844;53.686;-6.346;2024-01-15T02:57:06;6.63;;;6.43;;
41099;SDS011;26844;53.686;-6.346;2024-01-15T02:59:31;7.35;;;7.07;;
41099;SDS011;26844;53.686;-6.346;2024-01-15T03:01:56;7.30;;;7.00;;
41099;SDS011;26844;53.686;-6.346;2024-01-15T03:04:22;7.35;;;7.05;;
41099;SDS011;26844;53.686;-6.346;2024-01-15T03:06:47;7.25;;;7.00;;
41099;SDS011;26844;53.686;-6.346;2024-01-15T03:09:12;7.13;;;6.90;;
41099;SDS011;26844;53.686;-6.346;2024-01-15T03:11:38;7.38;;;7.07;;
41099;SDS011;26844;53.686;-6.346;2024-01-15T03:14:03;8.10;;;7.80;;
41099;SDS011;26844;53.686;-6.346;2024-01-15T03:16:29;8.02;;;7.72;;
41099;SDS011;26844;53.686;-6.346;2024-01-15T03:18:54;8.02;;;7.72;;
41099;SDS011;26844;53.686;-6.346;2024-01-15T03:21:19;8.38;;;8.07;;
41099;SDS011;26844;53.686;-6.346;2024-01-15T03:23:44;7.80;;;7.50;;
41099;SDS011;26844;53.686;-6.346;2024-01-15T03:26:10;7.25;;;6.95;;
41099;SDS011;26844;53.686;-6.346;2024-01-15T03:28:35;7.53;;;7.22;;
41099;SDS011;26844;53.686;-6.346;2024-01-15T03:31:00;7.60;;;7.30;;
41099;SDS011;26844;53.686;-6.346;2024-01-15T03:33:25;7.85;;;7.55;;
41099;SDS011;26844;53.686;-6.346;2024-01-15T03:35:51;8.18;;;7.88;;
41099;SDS011;26844;53.686;-6.346;2024-01-15T03:38:16;8.07;;;7.78;;
41099;SDS011;26844;53.686;-6.346;2024-01-15T03:40:41;8.13;;;7.82;;
41099;SDS011;26844;53.686;-6.346;2024-01-15T03:43:06;7.65;;;7.35;;
41099;SDS011;26844;53.686;-6.346;2024-01-15T03:45:32;7.50;;;7.20;;
41099;SDS011;26844;53.686;-6.346;2024-01-15T03:47:57;7.63;;;7.32;;
41099;SDS011;26844;53.686;-6.346;2024-01-15T03:50:22;8.32;;;8.02;;
41099;SDS011;26844;53.686;-6.346;2024-01-15T03:52:47;8.07;;;7.78;;
41099;SDS011;26844;53.686;-6.346;2024-01-15T03:55:13;8.57;;;8.27;;
41099;SDS011;26844;53.686;-6.346;2024-01-15T03:57:38;8.85;;;8.55;;
41099;SDS011;26844;53.686;-6.346;2024-01-15T04:00:03;8.45;;;8.15;;
41099;SDS011;26844;53.686;-6.346;2024-01-15T04:02:29;9.07;;;8.77;;
41099;SDS011;26844;53.686;-6.346;2024-01-15T04:04:54;9.20;;;8.90;;
41099;SDS011;26844;53.686;-6.346;2024-01-15T04:07:19;9.18;;;8.88;;
41099;SDS011;26844;53.686;-6.346;2024-01-15T04:09:44;8.93;;;8.63;;
41099;SDS011;26844;53.686;-6.346;2024-01-15T04:12:10;9.52;;;9.13;;
41099;SDS011;26844;53.686;-6.346;2024-01-15T04:14:35;9.15;;;8.85;;
41099;SDS011;26844;53.686;-6.346;2024-01-15T04:17:00;9.18;;;8.88;;
41099;SDS011;26844;53.686;-6.346;2024-01-15T04:19:25;9.27;;;8.98;;
41099;SDS011;26844;53.686;-6.346;2024-01-15T04:21:51;8.85;;;8.55;;
41099;SDS011;26844;53.686;-6.346;2024-01-15T04:24:16;9.80;;;9.40;;
41099;SDS011;26844;53.686;-6.346;2024-01-15T04:26:43;9.32;;;9.02;;
41099;SDS011;26844;53.686;-6.346;2024-01-15T04:29:08;9.52;;;9.15;;
41099;SDS011;26844;53.686;-6.346;2024-01-15T04:31:33;9.25;;;8.95;;
41099;SDS011;26844;53.686;-6.346;2024-01-15T04:33:58;10.27;;;9.88;;
41099;SDS011;26844;53.686;-6.346;2024-01-15T04:36:24;10.15;;;9.75;;
41099;SDS011;26844;53.686;-6.346;2024-01-15T04:38:49;10.30;;;9.90;;
41099;SDS011;26844;53.686;-6.346;2024-01-15T04:41:14;10.27;;;9.88;;
41099;SDS011;26844;53.686;-6.346;2024-01-15T04:43:40;10.80;;;10.40;;
41099;SDS011;26844;53.686;-6.346;2024-01-15T04:46:06;10.38;;;9.98;;
41099;SDS011;26844;53.686;-6.346;2024-01-15T04:48:32;10.35;;;9.95;;
41099;SDS011;26844;53.686;-6.346;2024-01-15T04:50:57;10.23;;;9.82;;
41099;SDS011;26844;53.686;-6.346;2024-01-15T04:53:22;9.80;;;9.40;;
41099;SDS011;26844;53.686;-6.346;2024-01-15T04:55:48;10.73;;;10.32;;
41099;SDS011;26844;53.686;-6.346;2024-01-15T04:58:13;10.52;;;10.13;;
41099;SDS011;26844;53.686;-6.346;2024-01-15T05:00:38;10.07;;;9.68;;
41099;SDS011;26844;53.686;-6.346;2024-01-15T05:03:04;10.43;;;10.02;;
41099;SDS011;26844;53.686;-6.346;2024-01-15T05:05:29;10.65;;;10.25;;
41099;SDS011;26844;53.686;-6.346;2024-01-15T05:07:54;10.75;;;10.35;;
41099;SDS011;26844;53.686;-6.346;2024-01-15T05:10:20;10.93;;;10.52;;
41099;SDS011;26844;53.686;-6.346;2024-01-15T05:12:45;10.75;;;10.35;;
41099;SDS011;26844;53.686;-6.346;2024-01-15T05:15:10;10.43;;;10.02;;
41099;SDS011;26844;53.686;-6.346;2024-01-15T05:17:36;10.20;;;9.80;;
41099;SDS011;26844;53.686;-6.346;2024-01-15T05:20:01;10.65;;;10.25;;
41099;SDS011;26844;53.686;-6.346;2024-01-15T05:22:27;10.27;;;9.88;;
41099;SDS011;26844;53.686;-6.346;2024-01-15T05:24:52;10.00;;;9.60;;
41099;SDS011;26844;53.686;-6.346;2024-01-15T05:27:17;9.60;;;9.25;;
41099;SDS011;26844;53.686;-6.346;2024-01-15T05:29:43;10.10;;;9.70;;
41099;SDS011;26844;53.686;-6.346;2024-01-15T05:32:08;10.30;;;9.90;;
41099;SDS011;26844;53.686;-6.346;2024-01-15T05:34:33;10.05;;;9.65;;
41099;SDS011;26844;53.686;-6.346;2024-01-15T05:36:58;9.25;;;8.95;;
41099;SDS011;26844;53.686;-6.346;2024-01-15T05:39:24;9.65;;;9.25;;
41099;SDS011;26844;53.686;-6.346;2024-01-15T05:41:49;9.32;;;9.02;;
41099;SDS011;26844;53.686;-6.346;2024-01-15T05:44:14;9.77;;;9.38;;
41099;SDS011;26844;53.686;-6.346;2024-01-15T05:46:39;8.90;;;8.60;;
41099;SDS011;26844;53.686;-6.346;2024-01-15T05:49:05;8.98;;;8.68;;
41099;SDS011;26844;53.686;-6.346;2024-01-15T05:51:30;9.27;;;8.98;;
41099;SDS011;26844;53.686;-6.346;2024-01-15T05:53:55;9.10;;;8.80;;
41099;SDS011;26844;53.686;-6.346;2024-01-15T05:56:20;9.90;;;9.50;;
41099;SDS011;26844;53.686;-6.346;2024-01-15T05:58:46;9.73;;;9.32;;
41099;SDS011;26844;53.686;-6.346;2024-01-15T06:01:11;9.98;;;9.57;;
41099;SDS011;26844;53.686;-6.346;2024-01-15T06:03:36;9.95;;;9.55;;
41099;SDS011;26844;53.686;-6.346;2024-01-15T06:06:01;10.13;;;9.73;;
41099;SDS011;26844;53.686;-6.346;2024-01-15T06:08:27;9.52;;;9.18;;
41099;SDS011;26844;53.686;-6.346;2024-01-15T06:10:53;10.23;;;9.82;;
41099;SDS011;26844;53.686;-6.346;2024-01-15T06:13:18;9.73;;;9.32;;
41099;SDS011;26844;53.686;-6.346;2024-01-15T06:15:43;9.88;;;9.48;;
41099;SDS011;26844;53.686;-6.346;2024-01-15T06:18:08;9.98;;;9.57;;
41099;SDS011;26844;53.686;-6.346;2024-01-15T06:20:34;10.13;;;9.73;;
41099;SDS011;26844;53.686;-6.346;2024-01-15T06:22:59;9.85;;;9.45;;
41099;SDS011;26844;53.686;-6.346;2024-01-15T06:25:24;10.40;;;10.00;;
41099;SDS011;26844;53.686;-6.346;2024-01-15T06:27:49;9.50;;;9.10;;
41099;SDS011;26844;53.686;-6.346;2024-01-15T06:30:15;8.85;;;8.55;;
41099;SDS011;26844;53.686;-6.346;2024-01-15T06:32:40;8.35;;;8.05;;
41099;SDS011;26844;53.686;-6.346;2024-01-15T06:35:05;8.48;;;8.18;;
41099;SDS011;26844;53.686;-6.346;2024-01-15T06:37:31;8.93;;;8.63;;
41099;SDS011;26844;53.686;-6.346;2024-01-15T06:39:57;8.43;;;8.13;;
41099;SDS011;26844;53.686;-6.346;2024-01-15T06:42:22;8.43;;;8.13;;
41099;SDS011;26844;53.686;-6.346;2024-01-15T06:44:48;8.65;;;8.35;;
41099;SDS011;26844;53.686;-6.346;2024-01-15T06:47:13;8.25;;;7.95;;
41099;SDS011;26844;53.686;-6.346;2024-01-15T06:49:39;8.68;;;8.38;;
41099;SDS011;26844;53.686;-6.346;2024-01-15T06:52:05;8.63;;;8.32;;
41099;SDS011;26844;53.686;-6.346;2024-01-15T06:54:30;9.23;;;8.93;;
41099;SDS011;26844;53.686;-6.346;2024-01-15T06:56:55;9.75;;;9.35;;
41099;SDS011;26844;53.686;-6.346;2024-01-15T06:59:21;9.25;;;8.95;;
41099;SDS011;26844;53.686;-6.346;2024-01-15T07:01:46;10.15;;;9.75;;
41099;SDS011;26844;53.686;-6.346;2024-01-15T07:04:11;9.45;;;9.15;;
41099;SDS011;26844;53.686;-6.346;2024-01-15T07:06:36;9.68;;;9.27;;
41099;SDS011;26844;53.686;-6.346;2024-01-15T07:09:02;10.60;;;10.20;;
41099;SDS011;26844;53.686;-6.346;2024-01-15T07:11:28;10.15;;;9.75;;
41099;SDS011;26844;53.686;-6.346;2024-01-15T07:13:53;10.40;;;10.00;;
41099;SDS011;26844;53.686;-6.346;2024-01-15T07:16:18;11.23;;;10.82;;
41099;SDS011;26844;53.686;-6.346;2024-01-15T07:18:43;11.18;;;10.77;;
41099;SDS011;26844;53.686;-6.346;2024-01-15T07:21:09;11.20;;;10.80;;
41099;SDS011;26844;53.686;-6.346;2024-01-15T07:23:34;10.60;;;10.20;;
41099;SDS011;26844;53.686;-6.346;2024-01-15T07:25:59;10.10;;;9.70;;
41099;SDS011;26844;53.686;-6.346;2024-01-15T07:28:24;9.90;;;9.50;;
41099;SDS011;26844;53.686;-6.346;2024-01-15T07:30:50;9.98;;;9.57;;
41099;SDS011;26844;53.686;-6.346;2024-01-15T07:33:15;9.52;;;9.20;;
41099;SDS011;26844;53.686;-6.346;2024-01-15T07:35:41;9.68;;;9.30;;
41099;SDS011;26844;53.686;-6.346;2024-01-15T07:38:06;9.38;;;9.07;;
41099;SDS011;26844;53.686;-6.346;2024-01-15T07:40:31;10.00;;;9.60;;
41099;SDS011;26844;53.686;-6.346;2024-01-15T07:42:57;9.93;;;9.52;;
41099;SDS011;26844;53.686;-6.346;2024-01-15T07:45:22;10.27;;;9.88;;
41099;SDS011;26844;53.686;-6.346;2024-01-15T07:47:47;10.30;;;9.90;;
41099;SDS011;26844;53.686;-6.346;2024-01-15T07:50:14;11.15;;;10.75;;
41099;SDS011;26844;53.686;-6.346;2024-01-15T07:52:40;11.50;;;11.10;;
41099;SDS011;26844;53.686;-6.346;2024-01-15T07:55:06;11.90;;;11.40;;
41099;SDS011;26844;53.686;-6.346;2024-01-15T07:57:32;11.75;;;11.27;;
41099;SDS011;26844;53.686;-6.346;2024-01-15T07:59:57;12.63;;;12.13;;
41099;SDS011;26844;53.686;-6.346;2024-01-15T08:02:22;12.95;;;12.45;;
41099;SDS011;26844;53.686;-6.346;2024-01-15T08:04:48;13.15;;;12.65;;
41099;SDS011;26844;53.686;-6.346;2024-01-15T08:07:13;12.70;;;12.20;;
41099;SDS011;26844;53.686;-6.346;2024-01-15T08:09:38;12.93;;;12.43;;
41099;SDS011;26844;53.686;-6.346;2024-01-15T08:12:05;12.93;;;12.43;;
41099;SDS011;26844;53.686;-6.346;2024-01-15T08:14:31;13.20;;;12.70;;
41099;SDS011;26844;53.686;-6.346;2024-01-15T08:16:56;12.68;;;12.18;;
41099;SDS011;26844;53.686;-6.346;2024-01-15T08:19:21;12.93;;;12.43;;
41099;SDS011;26844;53.686;-6.346;2024-01-15T08:21:47;12.68;;;12.18;;
41099;SDS011;26844;53.686;-6.346;2024-01-15T08:24:12;13.60;;;13.10;;
41099;SDS011;26844;53.686;-6.346;2024-01-15T08:26:37;13.80;;;13.25;;
41099;SDS011;26844;53.686;-6.346;2024-01-15T08:29:03;14.05;;;13.45;;
41099;SDS011;26844;53.686;-6.346;2024-01-15T08:31:28;13.93;;;13.32;;
41099;SDS011;26844;53.686;-6.346;2024-01-15T08:33:53;14.07;;;13.48;;
41099;SDS011;26844;53.686;-6.346;2024-01-15T08:36:19;14.07;;;13.48;;
41099;SDS011;26844;53.686;-6.346;2024-01-15T08:38:44;14.25;;;13.65;;
41099;SDS011;26844;53.686;-6.346;2024-01-15T08:41:10;14.35;;;13.75;;
41099;SDS011;26844;53.686;-6.346;2024-01-15T08:43:35;13.73;;;13.18;;
41099;SDS011;26844;53.686;-6.346;2024-01-15T08:46:00;14.80;;;14.20;;
41099;SDS011;26844;53.686;-6.346;2024-01-15T08:48:26;14.32;;;13.73;;
41099;SDS011;26844;53.686;-6.346;2024-01-15T08:50:54;14.38;;;13.77;;
41099;SDS011;26844;53.686;-6.346;2024-01-15T08:53:20;14.30;;;13.70;;
41099;SDS011;26844;53.686;-6.346;2024-01-15T08:55:46;14.63;;;14.02;;
41099;SDS011;26844;53.686;-6.346;2024-01-15T08:58:11;14.77;;;14.18;;
41099;SDS011;26844;53.686;-6.346;2024-01-15T09:00:37;14.43;;;13.82;;
41099;SDS011;26844;53.686;-6.346;2024-01-15T09:03:02;15.35;;;14.75;;
41099;SDS011;26844;53.686;-6.346;2024-01-15T09:05:27;15.52;;;14.93;;
41099;SDS011;26844;53.686;-6.346;2024-01-15T09:07:53;15.00;;;14.40;;
41099;SDS011;26844;53.686;-6.346;2024-01-15T09:10:19;14.77;;;14.18;;
41099;SDS011;26844;53.686;-6.346;2024-01-15T09:12:45;14.90;;;14.30;;
41099;SDS011;26844;53.686;-6.346;2024-01-15T09:15:10;14.48;;;13.88;;
41099;SDS011;26844;53.686;-6.346;2024-01-15T09:17:35;15.10;;;14.50;;
41099;SDS011;26844;53.686;-6.346;2024-01-15T09:20:01;15.13;;;14.52;;
41099;SDS011;26844;53.686;-6.346;2024-01-15T09:22:26;15.75;;;15.15;;
41099;SDS011;26844;53.686;-6.346;2024-01-15T09:24:52;14.73;;;14.13;;
41099;SDS011;26844;53.686;-6.346;2024-01-15T09:27:17;14.90;;;14.30;;
41099;SDS011;26844;53.686;-6.346;2024-01-15T09:29:42;14.30;;;13.70;;
41099;SDS011;26844;53.686;-6.346;2024-01-15T09:34:35;14.85;;;14.25;;
41099;SDS011;26844;53.686;-6.346;2024-01-15T09:37:00;14.77;;;14.18;;
41099;SDS011;26844;53.686;-6.346;2024-01-15T09:39:26;14.27;;;13.68;;
41099;SDS011;26844;53.686;-6.346;2024-01-15T09:41:52;13.93;;;13.43;;
41099;SDS011;26844;53.686;-6.346;2024-01-15T09:44:18;13.38;;;12.88;;
41099;SDS011;26844;53.686;-6.346;2024-01-15T09:46:44;13.98;;;13.48;;
41099;SDS011;26844;53.686;-6.346;2024-01-15T09:49:10;13.23;;;12.73;;
41099;SDS011;26844;53.686;-6.346;2024-01-15T09:51:35;12.13;;;11.63;;
41099;SDS011;26844;53.686;-6.346;2024-01-15T09:54:01;11.65;;;11.25;;
41099;SDS011;26844;53.686;-6.346;2024-01-15T09:56:27;12.52;;;12.02;;
41099;SDS011;26844;53.686;-6.346;2024-01-15T09:58:52;12.43;;;11.93;;
41099;SDS011;26844;53.686;-6.346;2024-01-15T10:01:17;12.38;;;11.88;;
41099;SDS011;26844;53.686;-6.346;2024-01-15T10:03:44;11.88;;;11.38;;
41099;SDS011;26844;53.686;-6.346;2024-01-15T10:06:10;11.70;;;11.25;;
41099;SDS011;26844;53.686;-6.346;2024-01-15T10:08:36;10.68;;;10.27;;
41099;SDS011;26844;53.686;-6.346;2024-01-15T10:11:02;10.50;;;10.10;;
41099;SDS011;26844;53.686;-6.346;2024-01-15T10:13:29;10.15;;;9.75;;
41099;SDS011;26844;53.686;-6.346;2024-01-15T10:15:55;8.43;;;8.13;;
41099;SDS011;26844;53.686;-6.346;2024-01-15T10:18:20;8.30;;;8.00;;
41099;SDS011;26844;53.686;-6.346;2024-01-15T10:20:45;8.35;;;8.05;;
41099;SDS011;26844;53.686;-6.346;2024-01-15T10:23:12;8.05;;;7.75;;
41099;SDS011;26844;53.686;-6.346;2024-01-15T10:25:37;7.80;;;7.50;;
41099;SDS011;26844;53.686;-6.346;2024-01-15T10:28:03;6.85;;;6.65;;
41099;SDS011;26844;53.686;-6.346;2024-01-15T10:30:28;7.43;;;7.13;;
41099;SDS011;26844;53.686;-6.346;2024-01-15T10:32:57;6.65;;;6.45;;
41099;SDS011;26844;53.686;-6.346;2024-01-15T10:35:23;6.90;;;6.70;;
41099;SDS011;26844;53.686;-6.346;2024-01-15T10:40:16;6.55;;;6.35;;
41099;SDS011;26844;53.686;-6.346;2024-01-15T10:42:41;5.07;;;4.88;;
41099;SDS011;26844;53.686;-6.346;2024-01-15T10:45:06;5.35;;;5.15;;
41099;SDS011;26844;53.686;-6.346;2024-01-15T10:47:34;4.28;;;4.18;;
41099;SDS011;26844;53.686;-6.346;2024-01-15T10:49:59;4.47;;;4.38;;
41099;SDS011;26844;53.686;-6.346;2024-01-15T10:52:25;4.15;;;4.05;;
41099;SDS011;26844;53.686;-6.346;2024-01-15T10:54:50;3.65;;;3.55;;
41099;SDS011;26844;53.686;-6.346;2024-01-15T10:57:16;3.80;;;3.70;;
41099;SDS011;26844;53.686;-6.346;2024-01-15T10:59:41;4.20;;;4.10;;
41099;SDS011;26844;53.686;-6.346;2024-01-15T11:02:07;3.88;;;3.78;;
41099;SDS011;26844;53.686;-6.346;2024-01-15T11:04:33;4.40;;;4.30;;
41099;SDS011;26844;53.686;-6.346;2024-01-15T11:06:58;3.90;;;3.80;;
41099;SDS011;26844;53.686;-6.346;2024-01-15T11:09:23;3.63;;;3.53;;
41099;SDS011;26844;53.686;-6.346;2024-01-15T11:11:51;3.72;;;3.63;;
41099;SDS011;26844;53.686;-6.346;2024-01-15T11:17:00;3.10;;;3.00;;
41099;SDS011;26844;53.686;-6.346;2024-01-15T11:19:25;3.15;;;3.05;;
41099;SDS011;26844;53.686;-6.346;2024-01-15T11:21:51;3.30;;;3.20;;
41099;SDS011;26844;53.686;-6.346;2024-01-15T11:24:38;2.97;;;2.88;;
41099;SDS011;26844;53.686;-6.346;2024-01-15T11:27:04;2.90;;;2.80;;
41099;SDS011;26844;53.686;-6.346;2024-01-15T11:29:31;3.35;;;3.25;;
41099;SDS011;26844;53.686;-6.346;2024-01-15T11:31:58;2.97;;;2.88;;
41099;SDS011;26844;53.686;-6.346;2024-01-15T11:37:29;2.50;;;2.40;;
41099;SDS011;26844;53.686;-6.346;2024-01-15T11:40:13;2.60;;;2.50;;
41099;SDS011;26844;53.686;-6.346;2024-01-15T11:42:42;1.92;;;1.92;;
41099;SDS011;26844;53.686;-6.346;2024-01-15T11:45:07;1.73;;;1.73;;
41099;SDS011;26844;53.686;-6.346;2024-01-15T11:50:17;1.80;;;1.80;;
41099;SDS011;26844;53.686;-6.346;2024-01-15T11:52:43;2.10;;;2.10;;
41099;SDS011;26844;53.686;-6.346;2024-01-15T12:00:05;1.63;;;1.63;;
41099;SDS011;26844;53.686;-6.346;2024-01-15T12:02:30;1.80;;;1.80;;
41099;SDS011;26844;53.686;-6.346;2024-01-15T12:04:56;1.63;;;1.63;;
41099;SDS011;26844;53.686;-6.346;2024-01-15T12:07:21;1.65;;;1.65;;
41099;SDS011;26844;53.686;-6.346;2024-01-15T12:09:47;1.70;;;1.70;;
41099;SDS011;26844;53.686;-6.346;2024-01-15T12:12:13;1.52;;;1.52;;
41099;SDS011;26844;53.686;-6.346;2024-01-15T12:14:42;1.50;;;1.50;;
41099;SDS011;26844;53.686;-6.346;2024-01-15T12:17:07;1.50;;;1.50;;
41099;SDS011;26844;53.686;-6.346;2024-01-15T12:19:32;1.63;;;1.63;;
41099;SDS011;26844;53.686;-6.346;2024-01-15T12:21:57;1.52;;;1.52;;
41099;SDS011;26844;53.686;-6.346;2024-01-15T12:24:23;1.52;;;1.52;;
41099;SDS011;26844;53.686;-6.346;2024-01-15T12:26:48;1.52;;;1.52;;
41099;SDS011;26844;53.686;-6.346;2024-01-15T12:29:13;1.40;;;1.40;;
41099;SDS011;26844;53.686;-6.346;2024-01-15T12:31:39;1.48;;;1.48;;
41099;SDS011;26844;53.686;-6.346;2024-01-15T12:34:04;1.45;;;1.45;;
41099;SDS011;26844;53.686;-6.346;2024-01-15T12:36:32;1.42;;;1.42;;
41099;SDS011;26844;53.686;-6.346;2024-01-15T12:39:00;1.33;;;1.33;;
41099;SDS011;26844;53.686;-6.346;2024-01-15T12:41:25;1.30;;;1.30;;
41099;SDS011;26844;53.686;-6.346;2024-01-15T12:43:51;1.40;;;1.40;;
41099;SDS011;26844;53.686;-6.346;2024-01-15T12:46:16;1.45;;;1.45;;
41099;SDS011;26844;53.686;-6.346;2024-01-15T12:48:41;1.30;;;1.30;;
41099;SDS011;26844;53.686;-6.346;2024-01-15T12:51:07;1.50;;;1.50;;
41099;SDS011;26844;53.686;-6.346;2024-01-15T12:53:33;1.40;;;1.40;;
41099;SDS011;26844;53.686;-6.346;2024-01-15T12:55:58;1.42;;;1.42;;
41099;SDS011;26844;53.686;-6.346;2024-01-15T12:58:23;1.33;;;1.33;;
41099;SDS011;26844;53.686;-6.346;2024-01-15T13:00:48;1.20;;;1.20;;
41099;SDS011;26844;53.686;-6.346;2024-01-15T13:03:14;1.27;;;1.27;;
41099;SDS011;26844;53.686;-6.346;2024-01-15T13:05:39;1.50;;;1.50;;
41099;SDS011;26844;53.686;-6.346;2024-01-15T13:08:06;1.30;;;1.30;;
41099;SDS011;26844;53.686;-6.346;2024-01-15T13:10:31;1.50;;;1.50;;
41099;SDS011;26844;53.686;-6.346;2024-01-15T13:12:56;1.60;;;1.60;;
41099;SDS011;26844;53.686;-6.346;2024-01-15T13:15:22;1.27;;;1.27;;
41099;SDS011;26844;53.686;-6.346;2024-01-15T13:17:47;1.52;;;1.52;;
41099;SDS011;26844;53.686;-6.346;2024-01-15T13:20:12;1.58;;;1.58;;
41099;SDS011;26844;53.686;-6.346;2024-01-15T13:22:38;1.25;;;1.25;;
41099;SDS011;26844;53.686;-6.346;2024-01-15T13:25:05;1.20;;;1.20;;
41099;SDS011;26844;53.686;-6.346;2024-01-15T13:27:32;1.50;;;1.50;;
41099;SDS011;26844;53.686;-6.346;2024-01-15T13:29:57;1.50;;;1.50;;
41099;SDS011;26844;53.686;-6.346;2024-01-15T13:32:25;1.40;;;1.40;;
41099;SDS011;26844;53.686;-6.346;2024-01-15T13:34:54;1.40;;;1.40;;
41099;SDS011;26844;53.686;-6.346;2024-01-15T13:37:19;1.45;;;1.45;;
41099;SDS011;26844;53.686;-6.346;2024-01-15T13:39:44;1.35;;;1.35;;
41099;SDS011;26844;53.686;-6.346;2024-01-15T13:42:10;1.40;;;1.40;;
41099;SDS011;26844;53.686;-6.346;2024-01-15T13:44:36;1.10;;;1.10;;
41099;SDS011;26844;53.686;-6.346;2024-01-15T13:47:02;1.35;;;1.35;;
41099;SDS011;26844;53.686;-6.346;2024-01-15T13:49:27;1.10;;;1.10;;
41099;SDS011;26844;53.686;-6.346;2024-01-15T13:51:53;1.30;;;1.30;;
41099;SDS011;26844;53.686;-6.346;2024-01-15T13:54:18;1.40;;;1.40;;
41099;SDS011;26844;53.686;-6.346;2024-01-15T13:56:45;1.27;;;1.27;;
41099;SDS011;26844;53.686;-6.346;2024-01-15T13:59:12;1.08;;;1.08;;
41099;SDS011;26844;53.686;-6.346;2024-01-15T14:01:38;1.40;;;1.40;;
41099;SDS011;26844;53.686;-6.346;2024-01-15T14:04:03;1.10;;;1.10;;
41099;SDS011;26844;53.686;-6.346;2024-01-15T14:06:28;1.20;;;1.20;;
41099;SDS011;26844;53.686;-6.346;2024-01-15T14:08:53;1.10;;;1.10;;
41099;SDS011;26844;53.686;-6.346;2024-01-15T14:11:19;1.38;;;1.38;;
41099;SDS011;26844;53.686;-6.346;2024-01-15T14:13:44;1.30;;;1.30;;
41099;SDS011;26844;53.686;-6.346;2024-01-15T14:16:10;1.40;;;1.40;;
41099;SDS011;26844;53.686;-6.346;2024-01-15T14:18:36;1.20;;;1.20;;
41099;SDS011;26844;53.686;-6.346;2024-01-15T14:21:01;1.40;;;1.40;;
41099;SDS011;26844;53.686;-6.346;2024-01-15T14:23:26;1.52;;;1.52;;
41099;SDS011;26844;53.686;-6.346;2024-01-15T14:25:52;1.58;;;1.58;;
41099;SDS011;26844;53.686;-6.346;2024-01-15T14:28:17;1.40;;;1.40;;
41099;SDS011;26844;53.686;-6.346;2024-01-15T14:30:43;1.50;;;1.50;;
41099;SDS011;26844;53.686;-6.346;2024-01-15T14:33:08;1.80;;;1.80;;
41099;SDS011;26844;53.686;-6.346;2024-01-15T14:35:33;1.35;;;1.35;;
41099;SDS011;26844;53.686;-6.346;2024-01-15T14:37:58;1.45;;;1.45;;
41099;SDS011;26844;53.686;-6.346;2024-01-15T14:40:24;1.50;;;1.50;;